Terminal Aerodrome Forecast
Issued by NWS

Home | Current Version | Previous Version | Graphics & Text | Print | Product List | Glossary On
Versions: 1 2 3 4 5 6 7 8 9 10 11 12
000
FTUS43 KOAX 012325
TAFCDR
TAF
KCDR 012325Z 0200/0224 04010KT P6SM SKC
     FM020700 21005KT P6SM BKN060
     FM021000 26005KT P6SM BKN040
      TEMPO 0210/0214 3SM -SHRA BR BKN025
     FM021500 35009KT P6SM BKN060
     FM021900 35010G20KT P6SM BKN040=

USA.gov is the U.S. government's official web portal to all federal, state and local government web resources and services.